sensor_id;sensor_type;location;lat;lon;timestamp;temperature;humidity
51613;DHT22;37694;51.748;14.326;2022-08-11T00:00:38;22.10;41.30
51613;DHT22;37694;51.748;14.326;2022-08-11T00:03:07;22.00;41.40
51613;DHT22;37694;51.748;14.326;2022-08-11T00:05:52;22.00;41.50
51613;DHT22;37694;51.748;14.326;2022-08-11T00:08:23;22.00;41.40
51613;DHT22;37694;51.748;14.326;2022-08-11T00:10:55;22.00;41.60
51613;DHT22;37694;51.748;14.326;2022-08-11T00:13:22;22.00;41.50
51613;DHT22;37694;51.748;14.326;2022-08-11T00:15:55;22.00;41.60
51613;DHT22;37694;51.748;14.326;2022-08-11T00:18:21;21.90;42.50
51613;DHT22;37694;51.748;14.326;2022-08-11T00:20:47;21.80;43.20
51613;DHT22;37694;51.748;14.326;2022-08-11T00:23:15;21.80;43.90
51613;DHT22;37694;51.748;14.326;2022-08-11T00:25:48;21.80;44.60
51613;DHT22;37694;51.748;14.326;2022-08-11T00:28:34;21.80;45.00
51613;DHT22;37694;51.748;14.326;2022-08-11T00:31:22;21.80;45.60
51613;DHT22;37694;51.748;14.326;2022-08-11T00:33:50;21.80;46.10
51613;DHT22;37694;51.748;14.326;2022-08-11T00:36:17;21.80;46.50
51613;DHT22;37694;51.748;14.326;2022-08-11T00:38:44;21.90;46.90
51613;DHT22;37694;51.748;14.326;2022-08-11T00:41:32;21.80;47.00
51613;DHT22;37694;51.748;14.326;2022-08-11T00:44:26;21.80;47.50
51613;DHT22;37694;51.748;14.326;2022-08-11T01:10:10;21.80;49.40
51613;DHT22;37694;51.748;14.326;2022-08-11T01:26:49;21.80;49.50
51613;DHT22;37694;51.748;14.326;2022-08-11T01:44:01;21.70;50.20
51613;DHT22;37694;51.748;14.326;2022-08-11T01:46:53;21.70;50.00
51613;DHT22;37694;51.748;14.326;2022-08-11T01:52:16;21.70;50.30
51613;DHT22;37694;51.748;14.326;2022-08-11T01:55:16;21.70;50.20
51613;DHT22;37694;51.748;14.326;2022-08-11T01:58:19;21.80;50.30
51613;DHT22;37694;51.748;14.326;2022-08-11T02:03:54;21.70;50.50
51613;DHT22;37694;51.748;14.326;2022-08-11T02:06:44;21.70;50.50
51613;DHT22;37694;51.748;14.326;2022-08-11T02:15:19;21.70;50.60
51613;DHT22;37694;51.748;14.326;2022-08-11T02:17:56;21.70;50.80
51613;DHT22;37694;51.748;14.326;2022-08-11T02:20:30;21.70;50.80
51613;DHT22;37694;51.748;14.326;2022-08-11T02:23:30;21.70;50.80
51613;DHT22;37694;51.748;14.326;2022-08-11T02:29:10;21.60;51.00
51613;DHT22;37694;51.748;14.326;2022-08-11T02:32:06;21.70;50.90
51613;DHT22;37694;51.748;14.326;2022-08-11T02:42:37;21.70;51.00
51613;DHT22;37694;51.748;14.326;2022-08-11T02:45:36;21.70;50.30
51613;DHT22;37694;51.748;14.326;2022-08-11T02:51:19;21.70;51.20
51613;DHT22;37694;51.748;14.326;2022-08-11T02:54:14;21.60;51.10
51613;DHT22;37694;51.748;14.326;2022-08-11T02:56:54;21.70;51.30
51613;DHT22;37694;51.748;14.326;2022-08-11T03:10:43;22.20;49.80
51613;DHT22;37694;51.748;14.326;2022-08-11T03:13:42;22.10;50.60
51613;DHT22;37694;51.748;14.326;2022-08-11T03:16:51;22.00;50.70
51613;DHT22;37694;51.748;14.326;2022-08-11T03:22:33;21.80;51.10
51613;DHT22;37694;51.748;14.326;2022-08-11T03:25:07;21.70;51.30
51613;DHT22;37694;51.748;14.326;2022-08-11T03:27:38;21.60;51.30
51613;DHT22;37694;51.748;14.326;2022-08-11T03:30:13;21.60;51.20
51613;DHT22;37694;51.748;14.326;2022-08-11T03:33:04;21.60;51.30
51613;DHT22;37694;51.748;14.326;2022-08-11T03:39:21;21.50;51.30
51613;DHT22;37694;51.748;14.326;2022-08-11T03:44:42;21.50;51.40
51613;DHT22;37694;51.748;14.326;2022-08-11T03:47:33;21.50;51.50
51613;DHT22;37694;51.748;14.326;2022-08-11T04:06:55;21.50;51.80
51613;DHT22;37694;51.748;14.326;2022-08-11T04:10:06;21.50;51.70
51613;DHT22;37694;51.748;14.326;2022-08-11T04:26:52;21.50;51.90
51613;DHT22;37694;51.748;14.326;2022-08-11T04:47:18;21.30;50.40
51613;DHT22;37694;51.748;14.326;2022-08-11T04:56:28;21.20;50.40
51613;DHT22;37694;51.748;14.326;2022-08-11T04:59:38;21.10;50.60
51613;DHT22;37694;51.748;14.326;2022-08-11T05:13:47;21.80;49.50
51613;DHT22;37694;51.748;14.326;2022-08-11T05:16:41;22.00;49.50
51613;DHT22;37694;51.748;14.326;2022-08-11T05:19:30;22.20;49.00
51613;DHT22;37694;51.748;14.326;2022-08-11T05:22:17;22.30;48.90
51613;DHT22;37694;51.748;14.326;2022-08-11T05:25:09;22.40;48.50
51613;DHT22;37694;51.748;14.326;2022-08-11T05:30:42;22.60;48.30
51613;DHT22;37694;51.748;14.326;2022-08-11T05:33:33;22.70;48.70
51613;DHT22;37694;51.748;14.326;2022-08-11T05:36:29;22.80;48.60
51613;DHT22;37694;51.748;14.326;2022-08-11T05:39:06;22.90;48.20
51613;DHT22;37694;51.748;14.326;2022-08-11T05:41:56;23.00;48.50
51613;DHT22;37694;51.748;14.326;2022-08-11T05:44:44;23.00;48.70
51613;DHT22;37694;51.748;14.326;2022-08-11T05:47:30;23.10;48.70
51613;DHT22;37694;51.748;14.326;2022-08-11T05:50:17;23.20;48.70
51613;DHT22;37694;51.748;14.326;2022-08-11T05:53:03;23.20;48.70
51613;DHT22;37694;51.748;14.326;2022-08-11T05:55:49;23.30;48.60
51613;DHT22;37694;51.748;14.326;2022-08-11T05:58:36;23.30;48.60
51613;DHT22;37694;51.748;14.326;2022-08-11T06:01:03;23.40;49.00
51613;DHT22;37694;51.748;14.326;2022-08-11T06:03:31;23.50;48.90
51613;DHT22;37694;51.748;14.326;2022-08-11T06:06:19;23.50;49.00
51613;DHT22;37694;51.748;14.326;2022-08-11T06:08:45;23.50;49.10
51613;DHT22;37694;51.748;14.326;2022-08-11T06:11:11;23.60;48.90
51613;DHT22;37694;51.748;14.326;2022-08-11T06:13:43;23.60;48.70
51613;DHT22;37694;51.748;14.326;2022-08-11T06:16:09;23.60;48.30
51613;DHT22;37694;51.748;14.326;2022-08-11T06:18:36;23.70;48.20
51613;DHT22;37694;51.748;14.326;2022-08-11T06:21:08;23.70;48.40
51613;DHT22;37694;51.748;14.326;2022-08-11T06:23:34;23.70;48.10
51613;DHT22;37694;51.748;14.326;2022-08-11T06:26:00;23.70;47.50
51613;DHT22;37694;51.748;14.326;2022-08-11T06:28:38;23.70;47.60
51613;DHT22;37694;51.748;14.326;2022-08-11T06:31:18;23.70;47.50
51613;DHT22;37694;51.748;14.326;2022-08-11T06:39:21;23.70;46.80
51613;DHT22;37694;51.748;14.326;2022-08-11T06:41:52;23.80;46.60
51613;DHT22;37694;51.748;14.326;2022-08-11T06:44:31;23.70;46.60
51613;DHT22;37694;51.748;14.326;2022-08-11T06:47:06;23.80;46.50
51613;DHT22;37694;51.748;14.326;2022-08-11T06:49:44;23.80;46.30
51613;DHT22;37694;51.748;14.326;2022-08-11T06:52:34;23.80;46.00
51613;DHT22;37694;51.748;14.326;2022-08-11T06:55:13;23.70;46.40
51613;DHT22;37694;51.748;14.326;2022-08-11T06:58:00;23.80;46.40
51613;DHT22;37694;51.748;14.326;2022-08-11T07:00:47;23.70;46.40
51613;DHT22;37694;51.748;14.326;2022-08-11T07:03:18;23.80;46.30
51613;DHT22;37694;51.748;14.326;2022-08-11T07:05:55;23.80;46.20
51613;DHT22;37694;51.748;14.326;2022-08-11T07:11:59;23.90;46.30
51613;DHT22;37694;51.748;14.326;2022-08-11T07:14:50;23.90;46.30
51613;DHT22;37694;51.748;14.326;2022-08-11T07:17:44;24.00;46.30
51613;DHT22;37694;51.748;14.326;2022-08-11T07:20:34;24.00;46.20
51613;DHT22;37694;51.748;14.326;2022-08-11T07:23:28;24.10;46.30
51613;DHT22;37694;51.748;14.326;2022-08-11T07:26:15;24.10;46.10
51613;DHT22;37694;51.748;14.326;2022-08-11T07:29:01;24.10;46.00
51613;DHT22;37694;51.748;14.326;2022-08-11T07:31:37;24.20;46.10
51613;DHT22;37694;51.748;14.326;2022-08-11T07:36:54;24.40;46.90
51613;DHT22;37694;51.748;14.326;2022-08-11T07:39:23;24.40;46.00
51613;DHT22;37694;51.748;14.326;2022-08-11T07:41:52;24.40;46.20
51613;DHT22;37694;51.748;14.326;2022-08-11T07:44:19;24.40;46.70
51613;DHT22;37694;51.748;14.326;2022-08-11T07:46:48;24.00;45.20
51613;DHT22;37694;51.748;14.326;2022-08-11T07:49:37;23.60;44.80
51613;DHT22;37694;51.748;14.326;2022-08-11T07:52:24;23.40;47.90
51613;DHT22;37694;51.748;14.326;2022-08-11T07:55:10;23.30;49.10
51613;DHT22;37694;51.748;14.326;2022-08-11T07:57:37;23.20;49.90
51613;DHT22;37694;51.748;14.326;2022-08-11T08:00:22;23.20;50.20
51613;DHT22;37694;51.748;14.326;2022-08-11T08:03:07;23.20;50.70
51613;DHT22;37694;51.748;14.326;2022-08-11T08:05:52;23.20;50.90
51613;DHT22;37694;51.748;14.326;2022-08-11T08:08:39;23.20;51.10
51613;DHT22;37694;51.748;14.326;2022-08-11T08:11:25;23.20;51.30
51613;DHT22;37694;51.748;14.326;2022-08-11T08:14:10;23.20;51.30
51613;DHT22;37694;51.748;14.326;2022-08-11T08:16:55;23.20;51.40
51613;DHT22;37694;51.748;14.326;2022-08-11T08:19:45;23.20;52.00
51613;DHT22;37694;51.748;14.326;2022-08-11T08:22:16;23.20;51.70
51613;DHT22;37694;51.748;14.326;2022-08-11T08:24:42;23.20;51.80
51613;DHT22;37694;51.748;14.326;2022-08-11T08:27:09;23.20;52.10
51613;DHT22;37694;51.748;14.326;2022-08-11T08:29:38;23.20;52.30
51613;DHT22;37694;51.748;14.326;2022-08-11T08:32:23;23.20;52.00
51613;DHT22;37694;51.748;14.326;2022-08-11T08:34:51;23.10;52.00
51613;DHT22;37694;51.748;14.326;2022-08-11T08:37:18;23.20;52.10
51613;DHT22;37694;51.748;14.326;2022-08-11T08:39:46;23.10;52.10
51613;DHT22;37694;51.748;14.326;2022-08-11T08:42:17;23.20;52.00
51613;DHT22;37694;51.748;14.326;2022-08-11T08:44:48;23.20;52.10
51613;DHT22;37694;51.748;14.326;2022-08-11T08:47:17;23.10;52.00
51613;DHT22;37694;51.748;14.326;2022-08-11T08:50:00;23.10;52.00
51613;DHT22;37694;51.748;14.326;2022-08-11T08:52:30;23.10;51.90
51613;DHT22;37694;51.748;14.326;2022-08-11T08:55:03;23.10;51.90
51613;DHT22;37694;51.748;14.326;2022-08-11T08:57:32;23.10;51.90
51613;DHT22;37694;51.748;14.326;2022-08-11T08:59:59;23.10;51.70
51613;DHT22;37694;51.748;14.326;2022-08-11T09:02:26;23.10;51.80
51613;DHT22;37694;51.748;14.326;2022-08-11T09:04:52;23.00;51.60
51613;DHT22;37694;51.748;14.326;2022-08-11T09:07:22;23.10;51.80
51613;DHT22;37694;51.748;14.326;2022-08-11T09:09:49;23.10;51.60
51613;DHT22;37694;51.748;14.326;2022-08-11T09:12:18;23.00;51.50
51613;DHT22;37694;51.748;14.326;2022-08-11T09:14:48;23.00;51.60
51613;DHT22;37694;51.748;14.326;2022-08-11T09:17:38;23.00;51.50
51613;DHT22;37694;51.748;14.326;2022-08-11T09:22:37;23.00;51.50
51613;DHT22;37694;51.748;14.326;2022-08-11T09:25:25;23.00;51.50
51613;DHT22;37694;51.748;14.326;2022-08-11T09:28:11;23.00;51.40
51613;DHT22;37694;51.748;14.326;2022-08-11T09:30:40;23.00;51.40
51613;DHT22;37694;51.748;14.326;2022-08-11T09:33:06;23.10;51.40
51613;DHT22;37694;51.748;14.326;2022-08-11T09:35:34;23.00;51.30
51613;DHT22;37694;51.748;14.326;2022-08-11T09:38:05;23.00;51.30
51613;DHT22;37694;51.748;14.326;2022-08-11T09:40:50;23.00;51.20
51613;DHT22;37694;51.748;14.326;2022-08-11T09:43:18;23.00;51.30
51613;DHT22;37694;51.748;14.326;2022-08-11T09:46:04;23.10;51.40
51613;DHT22;37694;51.748;14.326;2022-08-11T09:48:35;23.10;51.50
51613;DHT22;37694;51.748;14.326;2022-08-11T09:51:03;23.10;51.50
51613;DHT22;37694;51.748;14.326;2022-08-11T09:53:36;23.10;51.50
51613;DHT22;37694;51.748;14.326;2022-08-11T09:56:02;23.20;51.50
51613;DHT22;37694;51.748;14.326;2022-08-11T09:58:48;23.10;51.30
51613;DHT22;37694;51.748;14.326;2022-08-11T10:01:16;23.20;51.40
51613;DHT22;37694;51.748;14.326;2022-08-11T10:04:05;23.20;51.40
51613;DHT22;37694;51.748;14.326;2022-08-11T10:06:36;23.20;51.40
51613;DHT22;37694;51.748;14.326;2022-08-11T10:09:23;23.20;51.40
51613;DHT22;37694;51.748;14.326;2022-08-11T10:11:52;23.30;51.60
51613;DHT22;37694;51.748;14.326;2022-08-11T10:14:21;23.20;51.60
51613;DHT22;37694;51.748;14.326;2022-08-11T10:17:08;23.30;51.70
51613;DHT22;37694;51.748;14.326;2022-08-11T10:19:34;23.30;52.00
51613;DHT22;37694;51.748;14.326;2022-08-11T10:22:05;23.30;51.60
51613;DHT22;37694;51.748;14.326;2022-08-11T10:24:51;23.30;51.40
51613;DHT22;37694;51.748;14.326;2022-08-11T10:27:36;23.20;50.50
51613;DHT22;37694;51.748;14.326;2022-08-11T10:30:03;23.10;49.70
51613;DHT22;37694;51.748;14.326;2022-08-11T10:32:49;23.10;49.10
51613;DHT22;37694;51.748;14.326;2022-08-11T10:35:34;22.90;48.50
51613;DHT22;37694;51.748;14.326;2022-08-11T10:38:00;22.90;48.10
51613;DHT22;37694;51.748;14.326;2022-08-11T10:40:27;22.80;47.70
51613;DHT22;37694;51.748;14.326;2022-08-11T10:42:56;22.80;47.40
51613;DHT22;37694;51.748;14.326;2022-08-11T10:45:45;22.80;47.10
51613;DHT22;37694;51.748;14.326;2022-08-11T10:48:34;22.80;46.30
51613;DHT22;37694;51.748;14.326;2022-08-11T10:51:01;22.60;46.30
51613;DHT22;37694;51.748;14.326;2022-08-11T10:53:44;22.60;46.10
51613;DHT22;37694;51.748;14.326;2022-08-11T10:56:32;22.60;46.00
51613;DHT22;37694;51.748;14.326;2022-08-11T10:59:16;22.50;45.90
51613;DHT22;37694;51.748;14.326;2022-08-11T11:01:43;22.50;45.70
51613;DHT22;37694;51.748;14.326;2022-08-11T11:09:23;22.30;45.00
51613;DHT22;37694;51.748;14.326;2022-08-11T11:12:12;22.20;44.90
51613;DHT22;37694;51.748;14.326;2022-08-11T11:15:01;22.30;46.00
51613;DHT22;37694;51.748;14.326;2022-08-11T11:17:51;22.40;45.60
51613;DHT22;37694;51.748;14.326;2022-08-11T11:20:24;22.50;45.00
51613;DHT22;37694;51.748;14.326;2022-08-11T11:22:56;22.50;45.00
51613;DHT22;37694;51.748;14.326;2022-08-11T11:25:33;22.50;44.80
51613;DHT22;37694;51.748;14.326;2022-08-11T11:28:52;22.60;46.00
51613;DHT22;37694;51.748;14.326;2022-08-11T11:39:05;22.90;47.00
51613;DHT22;37694;51.748;14.326;2022-08-11T11:41:31;22.90;46.50
51613;DHT22;37694;51.748;14.326;2022-08-11T11:43:57;22.90;46.00
51613;DHT22;37694;51.748;14.326;2022-08-11T11:46:27;22.80;45.50
51613;DHT22;37694;51.748;14.326;2022-08-11T11:48:54;22.80;45.40
51613;DHT22;37694;51.748;14.326;2022-08-11T11:51:24;22.80;45.30
51613;DHT22;37694;51.748;14.326;2022-08-11T11:53:51;22.80;44.80
51613;DHT22;37694;51.748;14.326;2022-08-11T11:56:17;22.80;44.80
51613;DHT22;37694;51.748;14.326;2022-08-11T11:58:44;22.90;45.50
51613;DHT22;37694;51.748;14.326;2022-08-11T12:01:30;22.90;46.20
51613;DHT22;37694;51.748;14.326;2022-08-11T12:03:56;23.00;46.80
51613;DHT22;37694;51.748;14.326;2022-08-11T12:06:24;23.00;47.10
51613;DHT22;37694;51.748;14.326;2022-08-11T12:08:55;23.10;47.50
51613;DHT22;37694;51.748;14.326;2022-08-11T12:11:23;23.20;47.50
51613;DHT22;37694;51.748;14.326;2022-08-11T12:14:09;23.20;47.70
51613;DHT22;37694;51.748;14.326;2022-08-11T12:16:39;23.30;47.20
51613;DHT22;37694;51.748;14.326;2022-08-11T12:19:09;23.20;47.10
51613;DHT22;37694;51.748;14.326;2022-08-11T12:21:37;23.30;47.10
51613;DHT22;37694;51.748;14.326;2022-08-11T12:24:23;23.30;46.90
51613;DHT22;37694;51.748;14.326;2022-08-11T12:27:07;23.20;46.70
51613;DHT22;37694;51.748;14.326;2022-08-11T12:29:47;23.20;46.60
51613;DHT22;37694;51.748;14.326;2022-08-11T12:32:13;23.30;46.50
51613;DHT22;37694;51.748;14.326;2022-08-11T12:34:39;23.20;46.20
51613;DHT22;37694;51.748;14.326;2022-08-11T12:37:05;23.30;47.20
51613;DHT22;37694;51.748;14.326;2022-08-11T12:39:38;23.30;47.60
51613;DHT22;37694;51.748;14.326;2022-08-11T12:42:25;23.30;47.90
51613;DHT22;37694;51.748;14.326;2022-08-11T12:45:11;23.40;47.10
51613;DHT22;37694;51.748;14.326;2022-08-11T12:48:01;23.30;46.20
51613;DHT22;37694;51.748;14.326;2022-08-11T12:50:56;23.20;45.20
51613;DHT22;37694;51.748;14.326;2022-08-11T12:53:50;23.10;44.90
51613;DHT22;37694;51.748;14.326;2022-08-11T12:56:18;23.00;44.80
51613;DHT22;37694;51.748;14.326;2022-08-11T12:59:05;23.00;44.60
51613;DHT22;37694;51.748;14.326;2022-08-11T13:01:50;23.00;44.30
51613;DHT22;37694;51.748;14.326;2022-08-11T13:04:35;22.90;44.10
51613;DHT22;37694;51.748;14.326;2022-08-11T13:07:20;22.90;44.00
51613;DHT22;37694;51.748;14.326;2022-08-11T13:09:46;22.80;43.90
51613;DHT22;37694;51.748;14.326;2022-08-11T13:12:12;22.80;43.70
51613;DHT22;37694;51.748;14.326;2022-08-11T13:14:58;22.80;43.60
51613;DHT22;37694;51.748;14.326;2022-08-11T13:17:24;22.70;43.40
51613;DHT22;37694;51.748;14.326;2022-08-11T13:19:51;22.70;43.20
51613;DHT22;37694;51.748;14.326;2022-08-11T13:22:18;22.70;43.10
51613;DHT22;37694;51.748;14.326;2022-08-11T13:24:45;22.80;43.00
51613;DHT22;37694;51.748;14.326;2022-08-11T13:27:14;22.80;43.90
51613;DHT22;37694;51.748;14.326;2022-08-11T13:29:42;22.80;43.70
51613;DHT22;37694;51.748;14.326;2022-08-11T13:32:11;22.80;43.60
51613;DHT22;37694;51.748;14.326;2022-08-11T13:34:37;22.80;43.80
51613;DHT22;37694;51.748;14.326;2022-08-11T13:37:08;22.80;44.40
51613;DHT22;37694;51.748;14.326;2022-08-11T13:39:36;22.80;43.50
51613;DHT22;37694;51.748;14.326;2022-08-11T13:42:03;22.80;43.40
51613;DHT22;37694;51.748;14.326;2022-08-11T13:44:32;22.80;43.30
51613;DHT22;37694;51.748;14.326;2022-08-11T13:47:01;22.90;44.40
51613;DHT22;37694;51.748;14.326;2022-08-11T13:49:30;23.00;45.20
51613;DHT22;37694;51.748;14.326;2022-08-11T13:51:57;23.10;45.70
51613;DHT22;37694;51.748;14.326;2022-08-11T13:54:32;23.20;46.10
51613;DHT22;37694;51.748;14.326;2022-08-11T13:57:02;23.20;45.70
51613;DHT22;37694;51.748;14.326;2022-08-11T13:59:29;23.20;45.80
51613;DHT22;37694;51.748;14.326;2022-08-11T14:02:04;23.20;45.60
51613;DHT22;37694;51.748;14.326;2022-08-11T14:04:47;23.20;45.30
51613;DHT22;37694;51.748;14.326;2022-08-11T14:07:24;23.20;45.00
51613;DHT22;37694;51.748;14.326;2022-08-11T14:10:01;23.10;44.60
51613;DHT22;37694;51.748;14.326;2022-08-11T14:12:30;23.10;44.00
51613;DHT22;37694;51.748;14.326;2022-08-11T14:15:31;23.00;44.20
51613;DHT22;37694;51.748;14.326;2022-08-11T14:18:04;23.00;43.70
51613;DHT22;37694;51.748;14.326;2022-08-11T14:20:33;22.90;44.10
51613;DHT22;37694;51.748;14.326;2022-08-11T14:23:26;22.90;43.50
51613;DHT22;37694;51.748;14.326;2022-08-11T14:25:53;22.90;43.40
51613;DHT22;37694;51.748;14.326;2022-08-11T14:28:37;22.80;43.40
51613;DHT22;37694;51.748;14.326;2022-08-11T14:31:03;22.80;43.50
51613;DHT22;37694;51.748;14.326;2022-08-11T14:33:34;22.90;43.40
51613;DHT22;37694;51.748;14.326;2022-08-11T14:36:02;22.80;43.40
51613;DHT22;37694;51.748;14.326;2022-08-11T14:38:34;22.90;43.20
51613;DHT22;37694;51.748;14.326;2022-08-11T14:41:01;22.80;43.00
51613;DHT22;37694;51.748;14.326;2022-08-11T14:43:46;22.80;43.00
51613;DHT22;37694;51.748;14.326;2022-08-11T14:46:32;22.70;43.10
51613;DHT22;37694;51.748;14.326;2022-08-11T14:49:17;22.70;43.10
51613;DHT22;37694;51.748;14.326;2022-08-11T14:51:43;22.70;43.00
51613;DHT22;37694;51.748;14.326;2022-08-11T14:54:10;22.80;43.10
51613;DHT22;37694;51.748;14.326;2022-08-11T14:56:54;22.80;44.30
51613;DHT22;37694;51.748;14.326;2022-08-11T14:59:22;22.90;44.90
51613;DHT22;37694;51.748;14.326;2022-08-11T15:01:48;23.00;44.90
51613;DHT22;37694;51.748;14.326;2022-08-11T15:04:32;23.10;44.80
51613;DHT22;37694;51.748;14.326;2022-08-11T15:06:58;23.20;44.10
51613;DHT22;37694;51.748;14.326;2022-08-11T15:09:24;23.10;43.60
51613;DHT22;37694;51.748;14.326;2022-08-11T15:11:50;23.00;43.30
51613;DHT22;37694;51.748;14.326;2022-08-11T15:14:42;23.00;43.30
51613;DHT22;37694;51.748;14.326;2022-08-11T15:17:29;22.90;43.20
51613;DHT22;37694;51.748;14.326;2022-08-11T15:20:00;22.90;44.30
51613;DHT22;37694;51.748;14.326;2022-08-11T15:22:45;22.80;43.00
51613;DHT22;37694;51.748;14.326;2022-08-11T15:25:30;22.70;43.10
51613;DHT22;37694;51.748;14.326;2022-08-11T15:27:59;22.80;43.00
51613;DHT22;37694;51.748;14.326;2022-08-11T15:30:46;22.70;42.80
51613;DHT22;37694;51.748;14.326;2022-08-11T15:33:31;22.70;42.70
51613;DHT22;37694;51.748;14.326;2022-08-11T15:36:18;22.70;42.60
51613;DHT22;37694;51.748;14.326;2022-08-11T15:39:12;22.80;42.70
51613;DHT22;37694;51.748;14.326;2022-08-11T15:41:44;22.80;42.40
51613;DHT22;37694;51.748;14.326;2022-08-11T15:44:33;22.80;42.20
51613;DHT22;37694;51.748;14.326;2022-08-11T15:47:26;22.70;42.10
51613;DHT22;37694;51.748;14.326;2022-08-11T15:49:54;22.70;42.10
51613;DHT22;37694;51.748;14.326;2022-08-11T15:52:29;22.70;42.10
51613;DHT22;37694;51.748;14.326;2022-08-11T15:54:56;22.70;42.00
51613;DHT22;37694;51.748;14.326;2022-08-11T15:57:28;22.60;42.00
51613;DHT22;37694;51.748;14.326;2022-08-11T16:00:14;22.60;42.00
51613;DHT22;37694;51.748;14.326;2022-08-11T16:03:00;22.60;42.20
51613;DHT22;37694;51.748;14.326;2022-08-11T16:05:46;22.60;43.20
51613;DHT22;37694;51.748;14.326;2022-08-11T16:08:16;22.80;44.10
51613;DHT22;37694;51.748;14.326;2022-08-11T16:10:43;22.90;44.50
51613;DHT22;37694;51.748;14.326;2022-08-11T16:13:09;23.00;44.90
51613;DHT22;37694;51.748;14.326;2022-08-11T16:15:39;23.00;44.80
51613;DHT22;37694;51.748;14.326;2022-08-11T16:18:29;23.00;44.60
51613;DHT22;37694;51.748;14.326;2022-08-11T16:21:32;23.00;44.80
51613;DHT22;37694;51.748;14.326;2022-08-11T16:24:00;23.00;45.10
51613;DHT22;37694;51.748;14.326;2022-08-11T16:26:28;22.90;45.20
51613;DHT22;37694;51.748;14.326;2022-08-11T16:28:57;23.00;48.20
51613;DHT22;37694;51.748;14.326;2022-08-11T16:31:25;23.10;46.40
51613;DHT22;37694;51.748;14.326;2022-08-11T16:33:53;23.00;46.00
51613;DHT22;37694;51.748;14.326;2022-08-11T16:36:22;23.00;45.50
51613;DHT22;37694;51.748;14.326;2022-08-11T16:39:07;22.90;45.40
51613;DHT22;37694;51.748;14.326;2022-08-11T16:41:35;22.80;45.30
51613;DHT22;37694;51.748;14.326;2022-08-11T16:44:21;22.80;45.10
51613;DHT22;37694;51.748;14.326;2022-08-11T16:47:09;22.70;45.00
51613;DHT22;37694;51.748;14.326;2022-08-11T16:49:53;22.70;45.30
51613;DHT22;37694;51.748;14.326;2022-08-11T16:52:22;22.80;46.30
51613;DHT22;37694;51.748;14.326;2022-08-11T16:54:48;22.90;46.70
51613;DHT22;37694;51.748;14.326;2022-08-11T16:57:22;23.00;47.10
51613;DHT22;37694;51.748;14.326;2022-08-11T17:00:09;23.10;47.20
51613;DHT22;37694;51.748;14.326;2022-08-11T17:02:42;23.20;47.10
51613;DHT22;37694;51.748;14.326;2022-08-11T17:05:32;23.30;47.20
51613;DHT22;37694;51.748;14.326;2022-08-11T17:08:19;23.30;46.90
51613;DHT22;37694;51.748;14.326;2022-08-11T17:11:07;23.30;46.70
51613;DHT22;37694;51.748;14.326;2022-08-11T17:13:57;23.30;46.70
51613;DHT22;37694;51.748;14.326;2022-08-11T17:16:29;23.30;48.00
51613;DHT22;37694;51.748;14.326;2022-08-11T17:19:09;23.30;48.30
51613;DHT22;37694;51.748;14.326;2022-08-11T17:21:39;23.40;48.10
51613;DHT22;37694;51.748;14.326;2022-08-11T17:24:26;23.40;48.40
51613;DHT22;37694;51.748;14.326;2022-08-11T17:26:54;23.40;48.50
51613;DHT22;37694;51.748;14.326;2022-08-11T17:32:04;23.40;48.20
51613;DHT22;37694;51.748;14.326;2022-08-11T17:34:53;23.30;48.50
51613;DHT22;37694;51.748;14.326;2022-08-11T17:37:39;23.20;47.30
51613;DHT22;37694;51.748;14.326;2022-08-11T17:40:08;23.20;47.00
51613;DHT22;37694;51.748;14.326;2022-08-11T17:42:36;23.00;47.10
51613;DHT22;37694;51.748;14.326;2022-08-11T17:45:21;22.90;47.00
51613;DHT22;37694;51.748;14.326;2022-08-11T17:48:30;22.90;46.70
51613;DHT22;37694;51.748;14.326;2022-08-11T17:51:00;22.90;46.50
51613;DHT22;37694;51.748;14.326;2022-08-11T17:53:30;22.80;46.20
51613;DHT22;37694;51.748;14.326;2022-08-11T17:56:17;22.80;46.00
51613;DHT22;37694;51.748;14.326;2022-08-11T17:59:02;22.80;46.00
51613;DHT22;37694;51.748;14.326;2022-08-11T18:01:49;22.80;45.70
51613;DHT22;37694;51.748;14.326;2022-08-11T18:04:16;22.70;45.20
51613;DHT22;37694;51.748;14.326;2022-08-11T18:06:44;22.80;45.10
51613;DHT22;37694;51.748;14.326;2022-08-11T18:09:14;22.70;44.90
51613;DHT22;37694;51.748;14.326;2022-08-11T18:12:01;22.70;44.80
51613;DHT22;37694;51.748;14.326;2022-08-11T18:14:52;22.60;45.90
51613;DHT22;37694;51.748;14.326;2022-08-11T18:17:36;22.60;45.40
51613;DHT22;37694;51.748;14.326;2022-08-11T18:20:22;22.60;46.60
51613;DHT22;37694;51.748;14.326;2022-08-11T18:23:11;22.70;47.00
51613;DHT22;37694;51.748;14.326;2022-08-11T18:26:00;22.90;46.90
51613;DHT22;37694;51.748;14.326;2022-08-11T18:28:47;23.10;46.50
51613;DHT22;37694;51.748;14.326;2022-08-11T18:31:36;23.30;46.60
51613;DHT22;37694;51.748;14.326;2022-08-11T18:34:29;23.50;46.50
51613;DHT22;37694;51.748;14.326;2022-08-11T18:37:18;23.70;46.40
51613;DHT22;37694;51.748;14.326;2022-08-11T18:40:13;23.80;46.30
51613;DHT22;37694;51.748;14.326;2022-08-11T18:43:03;23.90;46.30
51613;DHT22;37694;51.748;14.326;2022-08-11T18:45:50;24.10;46.10
51613;DHT22;37694;51.748;14.326;2022-08-11T18:48:38;24.10;46.10
51613;DHT22;37694;51.748;14.326;2022-08-11T18:51:25;24.20;46.20
51613;DHT22;37694;51.748;14.326;2022-08-11T18:54:11;24.30;46.40
51613;DHT22;37694;51.748;14.326;2022-08-11T18:57:00;24.40;46.80
51613;DHT22;37694;51.748;14.326;2022-08-11T18:59:45;24.50;46.60
51613;DHT22;37694;51.748;14.326;2022-08-11T19:02:31;24.50;46.50
51613;DHT22;37694;51.748;14.326;2022-08-11T19:05:18;24.60;46.60
51613;DHT22;37694;51.748;14.326;2022-08-11T19:08:04;24.60;46.30
51613;DHT22;37694;51.748;14.326;2022-08-11T19:10:50;24.70;46.50
51613;DHT22;37694;51.748;14.326;2022-08-11T19:13:35;24.70;46.40
51613;DHT22;37694;51.748;14.326;2022-08-11T19:16:23;24.70;46.30
51613;DHT22;37694;51.748;14.326;2022-08-11T19:19:09;24.80;46.30
51613;DHT22;37694;51.748;14.326;2022-08-11T19:21:56;24.80;46.30
51613;DHT22;37694;51.748;14.326;2022-08-11T19:24:43;24.80;46.10
51613;DHT22;37694;51.748;14.326;2022-08-11T19:27:30;24.90;46.00
51613;DHT22;37694;51.748;14.326;2022-08-11T19:30:14;24.90;45.90
51613;DHT22;37694;51.748;14.326;2022-08-11T19:33:00;24.90;45.90
51613;DHT22;37694;51.748;14.326;2022-08-11T19:35:45;25.00;46.00
51613;DHT22;37694;51.748;14.326;2022-08-11T19:38:32;25.00;46.00
51613;DHT22;37694;51.748;14.326;2022-08-11T19:41:18;25.10;46.10